createdAt,value
2022-07-28T00:00:19.506Z,21.13
2022-07-28T00:02:47.341Z,21.14
2022-07-28T00:05:19.924Z,21.06
2022-07-28T00:07:49.876Z,21.02
2022-07-28T00:10:17.704Z,20.95
2022-07-28T00:12:45.590Z,20.91
2022-07-28T00:15:16.074Z,20.88
2022-07-28T00:17:43.968Z,20.84
2022-07-28T00:20:12.166Z,20.85
2022-07-28T00:22:44.182Z,20.81
2022-07-28T00:25:12.280Z,20.80
2022-07-28T00:27:40.207Z,20.79
2022-07-28T00:30:08.571Z,20.82
2022-07-28T00:32:36.463Z,20.86
2022-07-28T00:35:04.453Z,20.86
2022-07-28T00:37:35.950Z,20.87
2022-07-28T00:40:08.803Z,20.85
2022-07-28T00:42:36.616Z,20.85
2022-07-28T00:45:04.570Z,20.87
2022-07-28T00:47:33.387Z,20.88
2022-07-28T00:50:02.798Z,20.80
2022-07-28T00:52:35.703Z,20.78
2022-07-28T00:55:06.636Z,20.69
2022-07-28T00:57:41.719Z,20.63
2022-07-28T01:00:10.353Z,20.62
2022-07-28T01:02:43.016Z,20.61
2022-07-28T01:05:16.103Z,20.61
2022-07-28T01:08:05.205Z,20.54
2022-07-28T01:10:56.712Z,20.51
2022-07-28T01:13:42.068Z,20.49
2022-07-28T01:16:12.757Z,20.49
2022-07-28T01:18:44.538Z,20.46
2022-07-28T01:21:13.718Z,20.42
2022-07-28T01:24:03.310Z,20.38
2022-07-28T01:26:52.906Z,20.35
2022-07-28T01:29:34.593Z,20.31
2022-07-28T01:32:14.772Z,20.30
2022-07-28T01:34:58.989Z,20.26
2022-07-28T01:37:28.046Z,20.28
2022-07-28T01:40:27.612Z,20.27
2022-07-28T01:42:58.299Z,20.27
2022-07-28T01:45:26.400Z,20.25
2022-07-28T01:47:54.602Z,20.26
2022-07-28T01:50:23.773Z,20.26
2022-07-28T01:52:56.957Z,20.22
2022-07-28T01:55:38.729Z,20.17
2022-07-28T01:58:06.489Z,20.16
2022-07-28T02:00:34.391Z,20.16
2022-07-28T02:03:02.727Z,20.17
2022-07-28T02:05:30.553Z,20.17
2022-07-28T02:07:58.448Z,20.19
2022-07-28T02:10:26.209Z,20.15
2022-07-28T02:13:00.748Z,20.07
2022-07-28T02:15:28.742Z,20.08
2022-07-28T02:17:56.568Z,20.07
2022-07-28T02:20:24.474Z,20.03
2022-07-28T02:22:52.521Z,20.02
2022-07-28T02:25:21.037Z,20.00
2022-07-28T02:28:03.528Z,19.97
2022-07-28T02:30:42.330Z,19.96
2022-07-28T02:33:13.774Z,19.97
2022-07-28T02:36:01.837Z,19.97
2022-07-28T02:38:33.172Z,19.96
2022-07-28T02:41:07.683Z,19.90
2022-07-28T02:43:49.595Z,19.88
2022-07-28T02:46:23.433Z,19.85
2022-07-28T02:48:54.096Z,19.79
2022-07-28T02:51:24.261Z,19.78
2022-07-28T02:53:55.382Z,19.73
2022-07-28T02:56:27.963Z,19.64
2022-07-28T02:58:55.830Z,19.63
2022-07-28T03:01:23.660Z,19.62
2022-07-28T03:03:51.579Z,19.58
2022-07-28T03:06:25.423Z,19.55
2022-07-28T03:08:59.243Z,19.48
2022-07-28T03:11:40.317Z,19.41
2022-07-28T03:14:13.565Z,19.31
2022-07-28T03:16:55.749Z,19.26
2022-07-28T03:19:31.397Z,19.19
2022-07-28T03:22:04.496Z,19.19
2022-07-28T03:24:36.909Z,19.17
2022-07-28T03:27:25.521Z,19.09
2022-07-28T03:30:04.047Z,19.00
2022-07-28T03:32:41.041Z,18.99
2022-07-28T03:35:12.206Z,18.88
2022-07-28T03:37:57.253Z,18.79
2022-07-28T03:40:30.095Z,18.69
2022-07-28T03:43:05.099Z,18.69
2022-07-28T03:45:41.075Z,18.64
2022-07-28T03:48:15.271Z,18.58
2022-07-28T03:50:56.026Z,18.56
2022-07-28T03:53:27.736Z,18.49
2022-07-28T03:55:58.219Z,18.45
2022-07-28T03:58:29.699Z,18.39
2022-07-28T04:01:00.274Z,18.41
2022-07-28T04:03:43.887Z,18.36
2022-07-28T04:06:18.143Z,18.30
2022-07-28T04:08:46.060Z,18.31
2022-07-28T04:11:13.970Z,18.29
2022-07-28T04:13:43.884Z,18.23
2022-07-28T04:16:14.016Z,18.28
2022-07-28T04:18:48.623Z,18.29
2022-07-28T04:21:16.447Z,18.30
2022-07-28T04:23:44.272Z,18.26
2022-07-28T04:26:12.228Z,18.24
2022-07-28T04:28:40.195Z,18.18
2022-07-28T04:31:08.070Z,18.19
2022-07-28T04:33:35.927Z,18.20
2022-07-28T04:36:06.911Z,18.20
2022-07-28T04:38:35.657Z,18.11
2022-07-28T04:41:03.567Z,18.08
2022-07-28T04:43:34.162Z,18.06
2022-07-28T04:46:09.868Z,18.03
2022-07-28T04:48:44.905Z,18.07
2022-07-28T04:51:13.793Z,18.03
2022-07-28T04:53:44.752Z,18.02
2022-07-28T04:56:20.609Z,18.04
2022-07-28T04:58:54.134Z,18.10
2022-07-28T05:01:22.896Z,18.12
2022-07-28T05:03:57.946Z,18.17
2022-07-28T05:06:37.938Z,18.26
2022-07-28T05:09:08.574Z,18.28
2022-07-28T05:11:36.351Z,18.31
2022-07-28T05:14:06.251Z,18.34
2022-07-28T05:16:41.316Z,18.40
2022-07-28T05:19:18.903Z,18.47
2022-07-28T05:21:48.770Z,18.54
2022-07-28T05:24:18.955Z,18.60
2022-07-28T05:26:46.909Z,18.66
2022-07-28T05:29:14.777Z,18.71
2022-07-28T05:31:45.555Z,18.74
2022-07-28T05:34:16.568Z,18.78
2022-07-28T05:36:45.184Z,18.87
2022-07-28T05:39:12.972Z,18.90
2022-07-28T05:41:40.833Z,18.96
2022-07-28T05:44:10.989Z,19.00
2022-07-28T05:46:39.102Z,19.03
2022-07-28T05:49:09.144Z,19.08
2022-07-28T05:51:41.551Z,19.13
2022-07-28T05:54:09.703Z,19.17
2022-07-28T05:56:37.497Z,19.19
2022-07-28T05:59:11.365Z,19.25
2022-07-28T06:01:45.658Z,19.26
2022-07-28T06:04:27.740Z,19.34
2022-07-28T06:07:01.072Z,19.36
2022-07-28T06:09:31.525Z,19.42
2022-07-28T06:11:59.294Z,19.47
2022-07-28T06:14:30.087Z,19.56
2022-07-28T06:17:06.227Z,19.62
2022-07-28T06:19:36.915Z,19.65
2022-07-28T06:22:08.476Z,19.65
2022-07-28T06:24:48.521Z,19.70
2022-07-28T06:27:25.445Z,19.81
2022-07-28T06:30:01.148Z,19.84
2022-07-28T06:32:29.251Z,19.80
2022-07-28T06:35:05.260Z,19.86
2022-07-28T06:37:38.269Z,19.95
2022-07-28T06:40:13.019Z,20.03
2022-07-28T06:42:41.490Z,20.04
2022-07-28T06:45:09.968Z,20.11
2022-07-28T06:48:02.759Z,20.23
2022-07-28T06:50:30.650Z,20.33
2022-07-28T06:52:59.419Z,20.43
2022-07-28T06:55:34.467Z,20.48
2022-07-28T06:58:04.364Z,20.54
2022-07-28T07:00:32.512Z,20.62
2022-07-28T07:03:01.041Z,20.71
2022-07-28T07:05:31.083Z,20.77
2022-07-28T07:08:02.102Z,20.85
2022-07-28T07:10:29.983Z,20.93
2022-07-28T07:13:05.811Z,20.92
2022-07-28T07:15:45.039Z,21.01
2022-07-28T07:18:18.339Z,21.08
2022-07-28T07:20:51.868Z,21.18
2022-07-28T07:23:20.196Z,21.27
2022-07-28T07:25:50.032Z,21.33
2022-07-28T07:28:18.163Z,21.41
2022-07-28T07:30:51.463Z,21.46
2022-07-28T07:33:22.368Z,21.53
2022-07-28T07:35:58.161Z,21.63
2022-07-28T07:38:31.330Z,21.74
2022-07-28T07:40:59.276Z,21.73
2022-07-28T07:43:27.276Z,21.77
2022-07-28T07:45:57.341Z,21.86
2022-07-28T07:48:26.978Z,21.96
2022-07-28T07:50:55.184Z,22.04
2022-07-28T07:53:25.483Z,22.11
2022-07-28T07:55:53.643Z,22.17
2022-07-28T07:58:21.614Z,22.27
2022-07-28T08:00:54.650Z,22.39
2022-07-28T08:03:26.466Z,22.42
2022-07-28T08:05:57.638Z,22.58
2022-07-28T08:08:25.477Z,22.68
2022-07-28T08:10:56.089Z,22.79
2022-07-28T08:13:27.002Z,22.91
2022-07-28T08:15:55.107Z,23.00
2022-07-28T08:18:23.238Z,23.11
2022-07-28T08:20:51.097Z,23.21
2022-07-28T08:23:22.986Z,23.29
2022-07-28T08:25:53.968Z,23.43
2022-07-28T08:28:21.857Z,23.51
2022-07-28T08:30:50.399Z,23.60
2022-07-28T08:33:22.847Z,23.75
2022-07-28T08:35:50.718Z,23.88
2022-07-28T08:38:18.620Z,23.89
2022-07-28T08:40:47.742Z,23.94
2022-07-28T08:43:32.139Z,24.14
2022-07-28T08:46:02.281Z,24.26
2022-07-28T08:48:35.248Z,24.39
2022-07-28T08:51:10.517Z,24.48
2022-07-28T08:53:39.546Z,24.57
2022-07-28T08:56:09.753Z,24.59
2022-07-28T08:58:38.289Z,24.68
2022-07-28T09:01:08.045Z,24.74
2022-07-28T09:03:36.121Z,24.81
2022-07-28T09:06:04.253Z,24.91
2022-07-28T09:08:37.269Z,25.01
2022-07-28T09:11:07.338Z,25.08
2022-07-28T09:13:36.363Z,25.20
2022-07-28T09:16:12.501Z,25.34
2022-07-28T09:18:40.587Z,25.39
2022-07-28T09:21:08.518Z,25.43
2022-07-28T09:23:46.829Z,25.56
2022-07-28T09:26:14.756Z,25.79
2022-07-28T09:28:59.169Z,25.93
2022-07-28T09:31:28.307Z,26.01
2022-07-28T09:34:04.757Z,26.07
2022-07-28T09:36:41.951Z,26.08
2022-07-28T09:39:11.901Z,26.15
2022-07-28T09:41:56.350Z,26.26
2022-07-28T09:44:25.356Z,26.37
2022-07-28T09:46:53.356Z,26.42
2022-07-28T09:49:28.646Z,26.61
2022-07-28T09:52:04.594Z,26.69
2022-07-28T09:54:38.861Z,26.83
2022-07-28T09:57:14.187Z,27.03
2022-07-28T09:59:50.531Z,27.04
2022-07-28T10:02:27.788Z,27.18
2022-07-28T10:04:55.884Z,27.26
2022-07-28T10:07:30.901Z,27.29
2022-07-28T10:10:05.684Z,27.33
2022-07-28T10:12:35.099Z,27.39
2022-07-28T10:15:35.768Z,27.40
2022-07-28T10:18:03.969Z,27.58
2022-07-28T10:20:33.843Z,27.80
2022-07-28T10:23:10.416Z,27.76
2022-07-28T10:25:47.575Z,27.86
2022-07-28T10:28:18.724Z,27.85
2022-07-28T10:30:48.934Z,28.00
2022-07-28T10:33:20.895Z,28.11
2022-07-28T10:35:54.534Z,28.20
2022-07-28T10:38:23.874Z,28.33
2022-07-28T10:40:54.517Z,28.35
2022-07-28T10:43:25.653Z,28.49
2022-07-28T10:46:08.830Z,28.57
2022-07-28T10:48:39.774Z,28.49
2022-07-28T10:51:11.935Z,28.59
2022-07-28T10:53:46.919Z,28.57
2022-07-28T10:56:20.926Z,28.76
2022-07-28T10:58:54.640Z,28.87
2022-07-28T11:01:52.942Z,29.00
2022-07-28T11:04:46.351Z,28.99
2022-07-28T11:07:18.247Z,29.19
2022-07-28T11:09:48.473Z,29.24
2022-07-28T11:12:45.935Z,29.22
2022-07-28T11:15:32.073Z,29.23
2022-07-28T11:18:10.272Z,29.21
2022-07-28T11:21:02.164Z,29.23
2022-07-28T11:23:54.527Z,29.39
2022-07-28T11:26:24.363Z,29.45
2022-07-28T11:29:13.145Z,29.47
2022-07-28T11:31:51.034Z,29.37
2022-07-28T11:34:23.199Z,29.34
2022-07-28T11:37:07.650Z,29.16
2022-07-28T11:39:43.012Z,29.00
2022-07-28T11:42:31.058Z,28.99
2022-07-28T11:45:19.391Z,29.02
2022-07-28T11:47:47.255Z,28.96
2022-07-28T11:50:16.428Z,29.16
2022-07-28T11:52:57.064Z,29.41
2022-07-28T11:55:49.158Z,29.54
2022-07-28T11:58:27.689Z,29.57
2022-07-28T12:01:19.364Z,29.64
2022-07-28T12:03:55.457Z,29.79
2022-07-28T12:06:27.236Z,29.94
2022-07-28T12:09:01.242Z,30.00
2022-07-28T12:11:32.537Z,30.07
2022-07-28T12:14:04.213Z,30.11
2022-07-28T12:16:32.613Z,30.18
2022-07-28T12:19:03.934Z,30.23
2022-07-28T12:21:48.413Z,30.26
2022-07-28T12:24:20.389Z,30.11
2022-07-28T12:26:52.323Z,29.89
2022-07-28T12:29:20.989Z,29.76
2022-07-28T12:32:07.559Z,29.71
2022-07-28T12:34:41.383Z,29.54
2022-07-28T12:37:13.277Z,29.54
2022-07-28T12:39:43.445Z,29.65
2022-07-28T12:42:12.628Z,29.84
2022-07-28T12:44:45.460Z,30.02
2022-07-28T12:47:14.061Z,30.20
2022-07-28T12:49:43.990Z,30.33
2022-07-28T12:52:18.265Z,30.48
2022-07-28T12:54:53.016Z,30.52
2022-07-28T12:57:49.468Z,30.59
2022-07-28T13:00:22.502Z,30.40
2022-07-28T13:02:51.608Z,30.25
2022-07-28T13:05:57.402Z,30.34
2022-07-28T13:08:29.708Z,30.47
2022-07-28T13:10:59.102Z,30.53
2022-07-28T13:13:30.229Z,30.63
2022-07-28T13:16:14.853Z,30.81
2022-07-28T13:18:51.079Z,30.94
2022-07-28T13:21:58.707Z,31.06
2022-07-28T13:24:32.101Z,31.10
2022-07-28T13:27:03.318Z,31.15
2022-07-28T13:29:37.718Z,31.21
2022-07-28T13:32:12.865Z,31.29
2022-07-28T13:34:41.119Z,31.24
2022-07-28T13:37:10.069Z,31.31
2022-07-28T13:39:41.356Z,31.37
2022-07-28T13:42:10.430Z,31.37
2022-07-28T13:44:43.858Z,31.33
2022-07-28T13:47:17.333Z,31.38
2022-07-28T13:49:49.200Z,31.48
2022-07-28T13:52:32.958Z,31.51
2022-07-28T13:55:04.552Z,31.61
2022-07-28T13:57:36.844Z,31.65
2022-07-28T14:00:08.890Z,31.68
2022-07-28T14:02:37.327Z,31.51
2022-07-28T14:05:06.070Z,31.45
2022-07-28T14:07:34.076Z,31.39
2022-07-28T14:10:02.355Z,31.40
2022-07-28T14:12:32.926Z,31.36
2022-07-28T14:15:03.674Z,31.28
2022-07-28T14:17:43.639Z,31.20
2022-07-28T14:20:13.702Z,31.11
2022-07-28T14:22:42.157Z,31.05
2022-07-28T14:25:10.826Z,30.91
2022-07-28T14:27:39.469Z,30.83
2022-07-28T14:30:08.446Z,30.71
2022-07-28T14:32:38.996Z,30.61
2022-07-28T14:35:07.292Z,30.47
2022-07-28T14:37:55.167Z,30.36
2022-07-28T14:40:28.125Z,30.26
2022-07-28T14:42:59.232Z,30.03
2022-07-28T14:45:32.752Z,29.93
2022-07-28T14:48:22.942Z,29.90
2022-07-28T14:50:52.972Z,29.88
2022-07-28T14:53:23.321Z,29.77
2022-07-28T14:55:53.708Z,29.69
2022-07-28T14:58:21.567Z,29.63
2022-07-28T15:00:49.491Z,29.58
2022-07-28T15:03:18.109Z,29.45
2022-07-28T15:05:48.042Z,29.35
2022-07-28T15:08:15.888Z,29.27
2022-07-28T15:10:43.655Z,29.23
2022-07-28T15:13:11.388Z,29.19
2022-07-28T15:15:44.366Z,29.06
2022-07-28T15:18:12.660Z,29.07
2022-07-28T15:20:44.521Z,29.08
2022-07-28T15:23:12.739Z,29.06
2022-07-28T15:25:40.590Z,29.00
2022-07-28T15:28:09.102Z,28.97
2022-07-28T15:30:41.434Z,28.95
2022-07-28T15:33:18.881Z,28.92
2022-07-28T15:35:58.151Z,28.84
2022-07-28T15:38:29.178Z,28.79
2022-07-28T15:40:59.772Z,28.77
2022-07-28T15:43:28.730Z,28.75
2022-07-28T15:45:57.541Z,28.74
2022-07-28T15:48:25.445Z,28.70
2022-07-28T15:50:53.873Z,28.69
2022-07-28T15:53:21.636Z,28.71
2022-07-28T15:55:51.505Z,28.70
2022-07-28T15:58:20.072Z,28.70
2022-07-28T16:00:47.906Z,28.70
2022-07-28T16:03:15.831Z,28.70
2022-07-28T16:05:45.184Z,28.68
2022-07-28T16:08:15.159Z,28.69
2022-07-28T16:10:43.110Z,28.70
2022-07-28T16:13:11.146Z,28.73
2022-07-28T16:15:39.082Z,28.73
2022-07-28T16:18:07.238Z,28.75
2022-07-28T16:20:35.010Z,28.71
2022-07-28T16:23:03.049Z,28.69
2022-07-28T16:25:30.833Z,28.67
2022-07-28T16:27:58.989Z,28.62
2022-07-28T16:30:26.765Z,28.60
2022-07-28T16:32:55.964Z,28.55
2022-07-28T16:35:23.722Z,28.52
2022-07-28T16:37:51.631Z,28.50
2022-07-28T16:40:19.590Z,28.50
2022-07-28T16:42:47.354Z,28.48
2022-07-28T16:45:15.256Z,28.47
2022-07-28T16:47:43.073Z,28.44
2022-07-28T16:50:14.317Z,28.42
2022-07-28T16:52:42.968Z,28.36
2022-07-28T16:55:15.311Z,28.33
2022-07-28T16:57:45.740Z,28.32
2022-07-28T17:00:14.670Z,28.29
2022-07-28T17:02:45.873Z,28.27
2022-07-28T17:05:16.942Z,28.24
2022-07-28T17:07:46.255Z,28.24
2022-07-28T17:10:15.063Z,28.24
2022-07-28T17:12:49.770Z,28.21
2022-07-28T17:15:23.134Z,28.20
2022-07-28T17:17:54.523Z,28.16
2022-07-28T17:20:31.377Z,28.13
2022-07-28T17:23:01.879Z,28.09
2022-07-28T17:26:09.054Z,28.07
2022-07-28T17:28:21.056Z,28.05
2022-07-28T17:30:49.089Z,28.02
2022-07-28T17:33:19.851Z,28.00
2022-07-28T17:35:47.944Z,27.97
2022-07-28T17:38:22.802Z,27.94
2022-07-28T17:40:52.326Z,27.86
2022-07-28T17:43:29.123Z,27.71
2022-07-28T17:46:02.892Z,27.45
2022-07-28T17:48:36.664Z,27.23
2022-07-28T17:51:07.847Z,27.03
2022-07-28T17:53:38.355Z,26.74
2022-07-28T17:56:09.985Z,26.43
2022-07-28T17:58:42.845Z,26.07
2022-07-28T18:01:16.279Z,25.77
2022-07-28T18:03:59.044Z,25.60
2022-07-28T18:06:38.080Z,25.43
2022-07-28T18:09:08.678Z,25.14
2022-07-28T18:11:57.510Z,24.94
2022-07-28T18:14:28.758Z,24.72
2022-07-28T18:16:57.029Z,24.56
2022-07-28T18:19:27.600Z,24.38
2022-07-28T18:21:58.093Z,24.22
2022-07-28T18:24:28.939Z,23.94
2022-07-28T18:27:00.412Z,23.72
2022-07-28T18:29:38.558Z,23.57
2022-07-28T18:32:10.183Z,23.40
2022-07-28T18:34:38.521Z,23.27
2022-07-28T18:37:06.479Z,23.14
2022-07-28T18:39:39.491Z,23.09
2022-07-28T18:42:09.887Z,22.99
2022-07-28T18:44:37.729Z,22.92
2022-07-28T18:47:08.536Z,22.84
2022-07-28T18:49:38.678Z,22.73
2022-07-28T18:52:22.078Z,22.65
2022-07-28T18:54:56.283Z,22.58
2022-07-28T18:57:24.885Z,22.45
2022-07-28T18:59:56.594Z,22.36
2022-07-28T19:02:29.838Z,22.25
2022-07-28T19:04:57.708Z,22.11
2022-07-28T19:07:25.958Z,22.02
2022-07-28T19:10:14.967Z,21.94
2022-07-28T19:12:44.434Z,21.91
2022-07-28T19:15:13.300Z,21.85
2022-07-28T19:17:43.350Z,21.81
2022-07-28T19:20:15.359Z,21.84
2022-07-28T19:22:44.553Z,21.86
2022-07-28T19:25:20.595Z,21.82
2022-07-28T19:27:52.271Z,21.78
2022-07-28T19:30:20.504Z,21.80
2022-07-28T19:32:48.365Z,21.79
2022-07-28T19:35:17.589Z,21.77
2022-07-28T19:37:46.583Z,21.72
2022-07-28T19:40:15.294Z,21.74
2022-07-28T19:42:43.189Z,21.72
2022-07-28T19:45:11.448Z,21.73
2022-07-28T19:47:41.432Z,21.78
2022-07-28T19:50:10.727Z,21.79
2022-07-28T19:52:38.727Z,21.77
2022-07-28T19:55:11.510Z,21.66
2022-07-28T19:57:43.263Z,21.62
2022-07-28T20:00:11.767Z,21.62
2022-07-28T20:02:40.752Z,21.67
2022-07-28T20:05:09.628Z,21.67
2022-07-28T20:07:39.129Z,21.65
2022-07-28T20:10:07.478Z,21.63
2022-07-28T20:12:49.856Z,21.69
2022-07-28T20:15:17.823Z,21.64
2022-07-28T20:17:46.557Z,21.70
2022-07-28T20:20:19.546Z,21.74
2022-07-28T20:23:08.114Z,21.73
2022-07-28T20:25:36.019Z,21.77
2022-07-28T20:28:04.438Z,21.79
2022-07-28T20:30:34.016Z,21.76
2022-07-28T20:33:05.482Z,21.68
2022-07-28T20:35:35.837Z,21.68
2022-07-28T20:38:09.623Z,21.69
2022-07-28T20:40:39.765Z,21.71
2022-07-28T20:43:09.363Z,21.68
2022-07-28T20:45:38.551Z,21.69
2022-07-28T20:48:15.518Z,21.69
2022-07-28T20:50:43.724Z,21.69
2022-07-28T20:53:12.160Z,21.62
2022-07-28T20:55:40.364Z,21.59
2022-07-28T20:58:10.785Z,21.57
2022-07-28T21:00:41.024Z,21.54
2022-07-28T21:03:09.251Z,21.49
2022-07-28T21:05:37.421Z,21.34
2022-07-28T21:08:16.194Z,21.28
2022-07-28T21:10:45.891Z,21.26
2022-07-28T21:13:13.791Z,21.20
2022-07-28T21:15:43.481Z,21.20
2022-07-28T21:18:12.142Z,21.22
2022-07-28T21:20:40.181Z,21.18
2022-07-28T21:23:09.676Z,21.15
2022-07-28T21:25:37.912Z,21.20
2022-07-28T21:28:26.890Z,21.25
2022-07-28T21:30:55.668Z,21.27
2022-07-28T21:42:21.161Z,21.17
2022-07-28T21:44:50.385Z,21.16
2022-07-28T21:47:19.530Z,21.15
2022-07-28T21:49:47.699Z,21.18
2022-07-28T21:52:16.846Z,21.12
2022-07-28T21:54:44.808Z,21.06
2022-07-28T21:57:22.423Z,21.00
2022-07-28T21:59:55.144Z,21.07
2022-07-28T22:02:25.123Z,21.01
2022-07-28T22:04:55.190Z,21.01
2022-07-28T22:07:25.661Z,21.00
2022-07-28T22:09:53.789Z,21.00
2022-07-28T22:12:22.295Z,20.97
2022-07-28T22:14:50.619Z,20.99
2022-07-28T22:17:19.874Z,20.96
2022-07-28T22:19:56.862Z,20.92
2022-07-28T22:22:24.864Z,20.92
2022-07-28T22:24:53.327Z,20.92
2022-07-28T22:27:22.330Z,20.94
2022-07-28T22:29:52.008Z,20.97
2022-07-28T22:32:28.649Z,20.96
2022-07-28T22:34:58.935Z,20.92
2022-07-28T22:37:27.117Z,20.91
2022-07-28T22:39:56.335Z,20.93
2022-07-28T22:45:07.866Z,20.93
2022-07-28T22:47:36.116Z,20.91
2022-07-28T22:50:04.954Z,20.91
2022-07-28T22:52:34.022Z,20.85
2022-07-28T22:55:02.028Z,20.84
2022-07-28T22:57:30.073Z,20.78
2022-07-28T22:59:58.027Z,20.75
2022-07-28T23:02:27.300Z,20.74
2022-07-28T23:04:55.967Z,20.75
2022-07-28T23:07:51.370Z,20.72
2022-07-28T23:10:12.062Z,20.72
2022-07-28T23:12:39.977Z,20.70
2022-07-28T23:15:10.869Z,20.71
2022-07-28T23:17:38.786Z,20.69
2022-07-28T23:20:08.469Z,20.65
2022-07-28T23:22:36.528Z,20.63
2022-07-28T23:25:04.992Z,20.59
2022-07-28T23:27:33.184Z,20.60
2022-07-28T23:30:01.125Z,20.59
2022-07-28T23:32:29.704Z,20.57
2022-07-28T23:34:57.795Z,20.54
2022-07-28T23:37:26.837Z,20.58
2022-07-28T23:39:54.936Z,20.59
2022-07-28T23:42:23.020Z,20.58
2022-07-28T23:44:50.985Z,20.55
2022-07-28T23:51:07.164Z,20.52
2022-07-28T23:53:38.614Z,20.55
2022-07-28T23:56:06.896Z,20.55
2022-07-28T23:58:35.648Z,20.56
